Airfield :
LOGIN :

Register | Disclaimer

   EN    FR    IT 

 










Legend :    VFR   Marginal VFR   IFR   Intensive IFR   Very Intensive IFR
Visi :
Ceiling :
>= 8 km
>= 3000ft
5 to 8 km
1000 to 3000 ft
1500m to 5 km
500 to 1000 ft
800 to 1500m
200 to 500 ft
< 800m
< 200 ft
Symbols :   Thunderstorms  Fog  Heavy snow  Heavy precipitations  Wind > 20 kt
SIGMETs :     Misc.  Thunderstorms  Icing  Turbulence  Mountain Waves  Volcanic Ashes







- Airport Elevation : 13 ft
- IATA code : CEQ
- Download approach charts


LFMD - Cannes Mandelieu

CURRENT METAR :
  • 180730Z AUTO 36003KT 290V070 CAVOK 05/M04 Q1016 NOSIG

EXPIRED METARs :
  • 180700Z AUTO VRB01KT CAVOK 05/M04 Q1016 NOSIG
  • 180630Z AUTO VRB03KT CAVOK 07/M05 Q1016 NOSIG
  • 180600Z AUTO VRB02KT CAVOK 04/M05 Q1016 NOSIG
  • 180530Z AUTO 08003KT 050V150 CAVOK 04/M05 Q1016 NOSIG
  • 180500Z AUTO 00000KT CAVOK 03/M05 Q1016 NOSIG

TAF TAF LFMD
Valid from the 18 at 03:00 until the 19 at 03:00 UTC


180200Z 1803/1903 25008KT CAVOK
TEMPO 1803/1813 VRB03KT
BECMG 1813/1815 26015G30KT
BECMG 1821/1823 26010KT
ATIS : +33 4 93 48 73 23
No reported NOTAMs for that airfield.
4 SIGMETs reported for the Marseille FIR (LFMM) :
 
Severe mountain waves
LFMM SIGMET 6 VALID 180700/181100 LFPW
LFMM MARSEILLE FIR/UIR SEV MTW FCST WI N4530 E00700 - N4400 E00700 - N4400 E00730 - N4315 E00645 - N4500 E00615 - N4530 E00700 SFC/FL300 STNR INTSF=
Severe turbulence
LFMM SIGMET 5 VALID 180600/180900 LFPW
LFMM MARSEILLE FIR/UIR SEV TURB FCST WI N4345 E00245 - N4630 E00300 - N4630 E00400 - N4400 E00415 - N4345 E00245 SFC/FL080 STNR NC=
Severe turbulence
LFMM SIGMET 4 VALID 180600/180900 LFPW
LFMM MARSEILLE FIR/UIR SEV TURB FCST WI N4330 E00900 - N4315 E00945 - N4115 E00945 - N4115 E00845 - N4300 E00530 - N4400 E00615 - N4300 E00800 - N4330 E00900 SFC/FL060 STNR NC=
Severe mountain waves
LFMM SIGMET 3 VALID 180600/180900 LFPW
LFMM MARSEILLE FIR/UIR SEV MTW FCST S OF N4230 AND E OF E00900 SFC/FL220 MOV N 10KT NC=



MET'MAP, your aeronautical weather chart ! - Copyright ORBIFLY December 2007 - Disclaimer

ORBIFLY MET'MAP TEAM :

Programming & Development : Alexandra Zaïnal
Concept & Development : Baudouin d'Aumeries
Co-Development & Prog : Marc-Olivier Méhu
Technical & hardware support : Manuel Goepfert

Contact : metmap@orbifly.com




SOURCES & CREDITS :

   NOAA